.
WxDataArchive / Data Records for 2014-06-12
2014-06-11 June 2014 2014-06-13

Data Records for Thursday, 12 June 2014

Time	Temp	Chill	HIndex	Humid	Dewpt	 Wind 	HiWind	WindDir	Rain 	Barom
-----	----	-----	------	-----	-----	------	------	-------	-----	-----
00:00	67.6	67.6	67.6	88	63.9	0	0	---	0.00	29.693 
00:05	67.4	67.4	67.4	89	64.0	0	1	90	0.00	29.693 
00:10	67.3	67.3	67.3	89	63.9	0	0	---	0.00	29.693 
00:15	67.1	67.1	67.1	89	63.7	0	0	---	0.00	29.694 
00:20	67.1	67.1	67.1	90	64.1	0	0	---	0.00	29.694 
00:25	66.9	66.9	66.9	90	63.9	0	0	---	0.00	29.694 
00:30	66.9	66.9	66.9	90	63.9	0	0	---	0.00	29.693 
00:35	66.9	66.9	66.9	91	64.2	0	0	---	0.00	29.693 
00:40	66.9	66.9	66.9	91	64.2	0	0	---	0.00	29.693 
00:45	66.8	66.8	66.8	91	64.1	0	1	90	0.00	29.697 
00:50	66.8	66.8	66.8	91	64.1	0	0	---	0.00	29.697 
00:55	66.8	66.8	66.8	91	64.1	0	1	90	0.00	29.697 
01:00	66.6	66.6	66.6	91	63.9	0	1	90	0.00	29.698 
01:05	66.6	66.6	66.6	91	63.9	0	1	90	0.00	29.698 
01:10	66.6	66.6	66.6	91	63.9	0	1	90	0.00	29.698 
01:15	66.6	66.6	66.6	91	63.9	0	1	90	0.00	29.705 
01:20	66.6	66.6	66.6	91	63.9	0	1	90	0.00	29.705 
01:25	66.6	66.6	66.6	92	64.2	0	1	90	0.00	29.705 
01:30	66.6	66.6	66.6	92	64.2	0	1	90	0.00	29.704 
01:35	66.6	66.6	66.6	92	64.2	0	1	90	0.00	29.704 
01:40	66.6	66.6	66.6	92	64.2	0	1	90	0.00	29.704 
01:45	66.6	66.6	66.6	92	64.2	0	0	---	0.00	29.697 
01:50	66.6	66.6	66.6	92	64.2	0	0	---	0.00	29.697 
01:55	66.6	66.6	66.6	92	64.2	0	0	---	0.00	29.697 
02:00	66.4	66.4	66.4	92	64.0	0	1	90	0.00	29.702 
02:05	66.4	66.4	66.4	92	64.0	0	1	90	0.00	29.702 
02:10	66.4	66.4	66.4	92	64.0	0	2	90	0.00	29.702 
02:15	66.4	66.4	66.4	92	64.0	0	2	90	0.00	29.696 
02:20	66.4	66.4	66.4	92	64.0	0	3	90	0.00	29.696 
02:25	66.3	66.3	66.3	92	63.9	0	2	90	0.00	29.696 
02:30	66.3	66.3	66.3	91	63.6	0	1	90	0.00	29.698 
02:35	66.1	66.1	66.1	91	63.4	0	0	---	0.00	29.698 
02:40	66.0	66.0	66.0	91	63.3	0	1	90	0.00	29.698 
02:45	65.8	65.8	65.8	91	63.1	0	1	90	0.00	29.695 
02:50	65.6	65.6	65.6	91	62.9	0	2	90	0.00	29.695 
02:55	65.6	65.6	65.6	91	62.9	0	0	---	0.00	29.695 
03:00	65.5	65.5	65.5	91	62.8	0	1	90	0.00	29.696 
03:05	65.3	65.3	65.3	91	62.6	0	0	---	0.00	29.696 
03:10	65.3	65.3	65.3	91	62.6	0	0	---	0.00	29.696 
03:15	65.2	65.2	65.2	91	62.5	0	1	90	0.00	29.695 
03:20	65.2	65.2	65.2	91	62.5	0	0	---	0.00	29.695 
03:25	65.0	65.0	65.0	91	62.3	0	1	90	0.00	29.695 
03:30	65.0	65.0	65.0	91	62.3	0	1	90	0.00	29.692 
03:35	65.0	65.0	65.0	91	62.3	0	2	90	0.00	29.692 
03:40	64.8	64.8	64.8	91	62.1	0	1	90	0.00	29.692 
03:45	64.8	64.8	64.8	91	62.1	0	0	---	0.00	29.690 
03:50	64.7	64.7	64.7	91	62.0	0	0	---	0.00	29.690 
03:55	64.5	64.5	64.5	91	61.8	0	1	90	0.00	29.690 
04:00	64.5	64.5	64.5	92	62.1	0	0	---	0.00	29.689 
04:05	64.5	64.5	64.5	92	62.1	0	0	---	0.00	29.689 
04:10	64.5	64.5	64.5	92	62.1	0	0	---	0.00	29.689 
04:15	64.7	64.7	64.7	92	62.3	0	1	90	0.00	29.689 
04:20	64.7	64.7	64.7	92	62.3	0	0	---	0.00	29.689 
04:25	64.7	64.7	64.7	92	62.3	0	0	---	0.00	29.689 
04:30	64.8	64.8	64.8	92	62.4	0	0	---	0.00	29.690 
04:35	64.8	64.8	64.8	92	62.4	0	1	90	0.00	29.690 
04:40	64.8	64.8	64.8	92	62.4	0	1	90	0.00	29.690 
04:45	64.8	64.8	64.8	92	62.4	0	1	90	0.00	29.697 
04:50	64.8	64.8	64.8	92	62.4	0	1	90	0.00	29.697 
04:55	64.8	64.8	64.8	92	62.4	0	2	90	0.00	29.697 
05:00	65.0	65.0	65.0	92	62.6	0	1	90	0.00	29.708 
05:05	65.0	65.0	65.0	92	62.6	0	1	90	0.00	29.708 
05:10	65.0	65.0	65.0	91	62.3	0	1	90	0.00	29.708 
05:15	64.8	64.8	64.8	91	62.1	0	2	90	0.00	29.716 
05:20	64.7	64.7	64.7	91	62.0	0	2	90	0.00	29.716 
05:25	64.7	64.7	64.7	91	62.0	0	2	90	0.00	29.716 
05:30	64.7	64.7	64.7	91	62.0	0	2	90	0.00	29.718 
05:35	64.5	64.5	64.5	90	61.5	2	4	90	0.00	29.718 
05:40	64.3	64.3	64.3	90	61.3	1	3	90	0.00	29.718 
05:45	64.3	64.3	64.3	90	61.3	1	3	90	0.00	29.733 
05:50	64.2	64.2	64.2	90	61.2	0	2	90	0.00	29.733 
05:55	64.2	64.2	64.2	90	61.2	0	2	90	0.00	29.733 
06:00	64.2	64.2	64.2	90	61.2	0	2	90	0.00	29.740 
06:05	64.0	64.0	64.0	90	61.0	0	2	90	0.00	29.740 
06:10	64.0	64.0	64.0	90	61.0	0	3	90	0.00	29.740 
06:15	64.0	64.0	64.0	90	61.0	1	3	90	0.00	29.749 
06:20	64.0	64.0	64.0	90	61.0	0	2	90	0.00	29.749 
06:25	64.0	64.0	64.0	90	61.0	0	1	90	0.00	29.749 
06:30	64.0	64.0	64.0	90	61.0	0	1	90	0.00	29.743 
06:35	64.0	64.0	64.0	90	61.0	0	1	90	0.00	29.743 
06:40	64.0	64.0	64.0	90	61.0	0	0	---	0.00	29.743 
06:45	64.0	64.0	64.0	90	61.0	0	0	---	0.00	29.738 
06:50	64.0	64.0	64.0	90	61.0	0	0	---	0.00	29.738 
06:55	64.0	64.0	64.0	90	61.0	0	0	---	0.00	29.738 
07:00	64.0	64.0	64.0	90	61.0	0	0	---	0.00	29.738 
07:05	64.0	64.0	64.0	90	61.0	0	0	---	0.00	29.738 
07:10	64.0	64.0	64.0	90	61.0	0	0	---	0.00	29.738 
07:15	63.9	63.9	63.9	90	60.9	0	0	---	0.00	29.722 
07:20	63.9	63.9	63.9	90	60.9	0	0	---	0.00	29.722 
07:25	64.0	64.0	64.0	90	61.0	0	0	---	0.00	29.722 
07:30	64.3	64.3	64.3	91	61.6	0	0	---	0.00	29.721 
07:35	64.7	64.7	64.7	90	61.7	0	0	---	0.00	29.721 
07:40	64.8	64.8	64.8	90	61.8	0	0	---	0.00	29.721 
07:45	65.0	65.0	65.0	89	61.7	0	0	---	0.00	29.723 
07:50	65.2	65.2	65.2	89	61.9	0	2	90	0.00	29.723 
07:55	65.2	65.2	65.2	89	61.9	0	3	315	0.00	29.723 
08:00	65.2	65.2	65.2	88	61.6	0	2	315	0.00	29.732 
08:05	65.2	65.2	65.2	88	61.6	0	2	315	0.00	29.732 
08:10	65.2	65.2	65.2	88	61.6	0	1	315	0.00	29.732 
08:15	65.2	65.2	65.2	88	61.6	0	1	315	0.00	29.737 
08:20	65.2	65.2	65.2	87	61.2	0	0	---	0.00	29.737 
08:25	65.2	65.2	65.2	87	61.2	0	1	315	0.00	29.737 
08:30	65.2	65.2	65.2	87	61.2	0	2	315	0.00	29.751 
08:35	65.2	65.2	65.2	87	61.2	0	1	315	0.00	29.751 
08:40	65.2	65.2	65.2	87	61.2	0	1	315	0.00	29.751 
08:45	65.3	65.3	65.3	87	61.3	0	1	315	0.00	29.748 
08:50	65.5	65.5	65.5	87	61.5	0	2	315	0.00	29.748 
08:55	65.6	65.6	65.6	86	61.3	0	1	315	0.00	29.748 
09:00	65.6	65.6	65.6	86	61.3	0	1	315	0.00	29.749 
09:05	65.8	65.8	65.8	85	61.2	0	2	315	0.00	29.749 
09:10	66.0	66.0	66.0	85	61.4	0	2	315	0.00	29.749 
09:15	66.0	66.0	66.0	84	61.0	0	1	315	0.00	29.757 
09:20	66.1	66.1	66.1	84	61.1	0	2	315	0.00	29.757 
09:25	66.1	66.1	66.1	84	61.1	0	2	315	0.00	29.757 
09:30	66.1	66.1	66.1	83	60.8	1	4	315	0.00	29.770 
09:35	66.1	66.1	66.1	83	60.8	0	2	315	0.00	29.770 
09:40	66.3	66.3	66.3	83	61.0	0	2	315	0.00	29.770 
09:45	66.3	66.3	66.3	83	61.0	0	1	315	0.00	29.776 
09:50	66.3	66.3	66.3	83	61.0	0	3	315	0.00	29.776 
09:55	66.1	66.1	66.1	82	60.4	1	3	315	0.00	29.776 
10:00	66.1	66.1	66.1	83	60.8	0	2	315	0.00	29.784 
10:05	66.1	66.1	66.1	83	60.8	0	1	315	0.00	29.784 
10:10	66.1	66.1	66.1	83	60.8	0	2	315	0.00	29.784 
10:15	66.1	66.1	66.1	83	60.8	1	4	315	0.00	29.784 
10:20	66.1	66.1	66.1	84	61.1	0	2	315	0.00	29.784 
10:25	66.1	66.1	66.1	84	61.1	1	3	315	0.00	29.784 
10:30	66.0	66.0	66.0	84	61.0	0	2	315	0.00	29.786 
10:35	66.0	66.0	66.0	84	61.0	1	4	315	0.00	29.786 
10:40	65.6	65.6	65.6	85	61.0	2	5	292	0.01	29.786 
10:45	65.0	65.0	65.0	86	60.7	2	5	292	0.00	29.790 
10:50	64.7	64.7	64.7	88	61.1	2	3	270	0.00	29.790 
10:55	64.5	64.5	64.5	89	61.2	1	3	270	0.00	29.790 
11:00	64.3	64.3	64.3	89	61.0	0	2	270	0.00	29.793 
11:05	64.3	64.3	64.3	90	61.3	1	3	270	0.00	29.793 
11:10	64.3	64.3	64.3	90	61.3	0	2	270	0.00	29.793 
11:15	64.3	64.3	64.3	91	61.6	0	2	270	0.00	29.800 
11:20	64.3	64.3	64.3	91	61.6	0	2	270	0.00	29.800 
11:25	64.3	64.3	64.3	91	61.6	0	1	270	0.00	29.800 
11:30	64.3	64.3	64.3	91	61.6	0	1	270	0.00	29.793 
11:35	64.5	64.5	64.5	92	62.1	0	1	270	0.00	29.793 
11:40	64.7	64.7	64.7	92	62.3	0	3	270	0.00	29.793 
11:45	65.2	65.2	65.2	92	62.8	0	2	270	0.00	29.792 
11:50	65.5	65.5	65.5	91	62.8	0	3	270	0.00	29.792 
11:55	65.8	65.8	65.8	91	63.1	1	3	270	0.00	29.792 
12:00	66.4	66.4	66.4	90	63.4	1	3	270	0.00	29.795 
12:05	66.6	66.6	66.6	89	63.3	1	3	270	0.00	29.795 
12:10	66.8	66.8	66.8	87	62.8	1	4	270	0.00	29.795 
12:15	66.9	66.9	66.9	86	62.6	1	3	270	0.00	29.793 
12:20	66.8	66.8	66.8	84	61.8	1	4	270	0.00	29.793 
12:25	66.8	66.8	66.8	84	61.8	1	3	270	0.00	29.793 
12:30	67.1	67.1	67.1	84	62.1	1	4	270	0.00	29.796 
12:35	67.3	67.3	67.3	84	62.3	0	2	270	0.00	29.796 
12:40	67.4	67.4	67.4	83	62.0	1	4	270	0.00	29.796 
12:45	67.4	67.4	67.4	81	61.4	2	4	270	0.00	29.799 
12:50	67.4	67.4	67.4	81	61.4	1	4	270	0.00	29.799 
12:55	67.4	67.4	67.4	81	61.4	0	2	270	0.00	29.799 
13:00	67.3	67.3	67.3	80	60.9	1	2	270	0.00	29.799 
13:05	67.3	67.3	67.3	80	60.9	1	3	270	0.00	29.799 
13:10	67.3	67.3	67.3	81	61.3	0	2	270	0.00	29.799 
13:15	67.3	67.3	67.3	81	61.3	1	3	270	0.00	29.800 
13:20	67.4	67.4	67.4	81	61.4	1	3	270	0.00	29.800 
13:25	67.8	67.8	67.8	81	61.7	1	3	270	0.00	29.800 
13:30	68.1	68.1	68.1	81	62.0	0	2	270	0.00	29.801 
13:35	67.9	67.9	67.9	80	61.5	1	4	270	0.00	29.801 
13:40	67.8	67.8	67.8	81	61.7	0	2	270	0.00	29.801 
13:45	67.8	67.8	67.8	82	62.1	1	3	270	0.00	29.800 
13:50	68.3	68.3	68.3	82	62.6	0	1	270	0.00	29.800 
13:55	69.3	69.3	69.3	81	63.2	0	3	270	0.01	29.800 
14:00	69.9	69.9	69.9	79	63.1	1	3	270	0.00	29.792 
14:05	70.4	70.4	70.4	77	62.8	2	4	270	0.00	29.792 
14:10	70.6	70.6	70.6	76	62.7	1	3	270	0.00	29.792 
14:15	70.8	70.8	70.8	75	62.5	1	3	270	0.00	29.788 
14:20	71.1	71.1	71.1	75	62.8	1	2	270	0.00	29.788 
14:25	71.5	71.5	71.5	73	62.4	2	4	270	0.00	29.788 
14:30	72.0	72.0	72.0	71	62.1	2	4	292	0.00	29.783 
14:35	72.8	72.8	72.8	73	63.6	0	3	292	0.00	29.783 
14:40	72.8	72.8	72.8	69	62.0	1	5	315	0.00	29.783 
14:45	73.0	73.0	73.0	69	62.2	2	4	315	0.00	29.782 
14:50	73.5	73.5	73.5	65	61.0	3	5	292	0.00	29.782 
14:55	73.9	73.9	73.9	66	61.8	3	5	315	0.00	29.782 
15:00	74.0	74.0	74.0	66	61.9	3	5	270	0.00	29.779 
15:05	74.6	74.6	74.6	67	62.9	2	4	292	0.00	29.779 
15:10	74.7	74.7	74.7	64	61.7	2	6	270	0.00	29.779 
15:15	74.4	74.4	74.4	64	61.4	2	5	292	0.00	29.781 
15:20	74.4	74.4	74.4	65	61.8	1	4	292	0.00	29.781 
15:25	74.7	74.7	74.7	64	61.7	3	6	292	0.00	29.781 
15:30	75.3	75.3	77.5	62	61.4	2	6	315	0.00	29.772 
15:35	76.0	76.0	78.0	62	62.0	1	4	315	0.00	29.772 
15:40	76.3	76.3	78.2	61	61.8	2	5	292	0.00	29.772 
15:45	76.7	76.7	78.5	59	61.3	2	3	292	0.00	29.768 
15:50	77.0	77.0	78.8	59	61.6	2	4	292	0.00	29.768 
15:55	77.2	77.2	78.9	60	62.2	1	6	292	0.00	29.768 
16:00	77.7	77.7	79.3	58	61.7	1	3	292	0.00	29.765 
16:05	77.9	77.9	79.3	54	59.9	2	4	292	0.00	29.765 
16:10	78.1	78.1	79.6	57	61.6	1	4	292	0.00	29.765 
16:15	78.1	78.1	79.5	54	60.1	2	4	270	0.00	29.766 
16:20	78.3	78.3	79.7	54	60.3	2	6	270	0.00	29.766 
16:25	78.3	78.3	79.6	53	59.7	2	5	292	0.00	29.766 
16:30	77.6	77.6	79.1	54	59.6	2	5	270	0.00	29.764 
16:35	77.9	77.9	79.3	54	59.9	3	5	315	0.00	29.764 
16:40	78.3	78.3	79.8	57	61.8	1	4	292	0.00	29.764 
16:45	78.6	78.6	79.8	52	59.5	2	5	292	0.00	29.753 
16:50	78.5	78.5	79.8	54	60.4	2	4	292	0.00	29.753 
16:55	78.5	78.5	79.8	54	60.4	1	4	292	0.00	29.753 
17:00	78.6	78.6	80.0	55	61.1	1	3	292	0.00	29.752 
17:05	79.0	79.0	80.4	56	61.9	1	4	292	0.00	29.752 
17:10	79.6	79.6	80.7	53	60.9	1	3	292	0.00	29.752 
17:15	79.6	79.6	80.6	52	60.4	1	4	292	0.00	29.750 
17:20	79.4	79.4	80.5	53	60.8	2	5	292	0.00	29.750 
17:25	79.4	79.4	80.5	53	60.8	1	4	292	0.00	29.750 
17:30	79.2	79.2	80.4	54	61.1	1	4	315	0.00	29.751 
17:35	79.0	79.0	80.3	54	60.9	1	5	270	0.00	29.751 
17:40	79.4	79.4	80.6	54	61.3	2	4	270	0.00	29.751 
17:45	79.4	79.4	80.6	54	61.3	1	4	270	0.00	29.750 
17:50	79.4	79.4	80.6	54	61.3	2	4	270	0.00	29.750 
17:55	79.2	79.2	80.4	53	60.6	2	4	270	0.00	29.750 
18:00	79.2	79.2	80.5	55	61.6	1	2	270	0.00	29.745 
18:05	79.4	79.4	80.6	54	61.3	1	4	270	0.00	29.745 
18:10	79.4	79.4	80.7	55	61.8	0	2	270	0.00	29.745 
18:15	79.4	79.4	80.6	54	61.3	1	3	270	0.00	29.740 
18:20	79.2	79.2	80.4	54	61.1	1	3	270	0.00	29.740 
18:25	79.0	79.0	80.3	54	60.9	1	3	270	0.00	29.740 
18:30	78.8	78.8	80.1	55	61.2	1	4	270	0.00	29.738 
18:35	78.5	78.5	79.9	56	61.5	2	3	270	0.00	29.738 
18:40	78.3	78.3	79.8	56	61.3	1	5	270	0.00	29.738 
18:45	78.5	78.5	79.9	56	61.5	1	3	270	0.00	29.736 
18:50	78.6	78.6	80.0	55	61.1	1	2	270	0.00	29.736 
18:55	78.8	78.8	80.3	57	62.3	0	1	270	0.00	29.736 
19:00	78.8	78.8	80.1	55	61.2	1	2	270	0.00	29.734 
19:05	78.8	78.8	80.2	56	61.8	0	2	270	0.00	29.734 
19:10	78.5	78.5	79.9	56	61.5	0	2	270	0.00	29.734 
19:15	78.3	78.3	79.8	57	61.8	0	1	270	0.00	29.732 
19:20	78.3	78.3	79.9	58	62.3	0	0	---	0.00	29.732 
19:25	78.3	78.3	79.9	58	62.3	0	1	270	0.00	29.732 
19:30	78.1	78.1	79.7	58	62.1	0	1	270	0.00	29.733 
19:35	78.1	78.1	79.7	58	62.1	0	2	270	0.00	29.733 
19:40	78.1	78.1	79.7	58	62.1	0	1	270	0.00	29.733 
19:45	78.1	78.1	79.7	59	62.6	0	1	270	0.00	29.734 
19:50	78.1	78.1	79.8	60	63.1	0	0	---	0.00	29.734 
19:55	77.9	77.9	79.6	60	62.9	0	0	---	0.00	29.734 
20:00	77.9	77.9	79.6	60	62.9	0	0	---	0.00	29.734 
20:05	77.9	77.9	79.6	60	62.9	0	0	---	0.00	29.734 
20:10	77.7	77.7	79.4	59	62.2	0	0	---	0.00	29.734 
20:15	77.7	77.7	79.4	60	62.7	0	0	---	0.00	29.732 
20:20	77.7	77.7	79.4	60	62.7	0	0	---	0.00	29.732 
20:25	77.7	77.7	79.4	61	63.2	0	0	---	0.00	29.732 
20:30	77.6	77.6	79.3	60	62.6	0	0	---	0.00	29.732 
20:35	77.4	77.4	79.1	61	62.9	0	0	---	0.00	29.732 
20:40	77.2	77.2	79.0	61	62.7	0	0	---	0.00	29.732 
20:45	77.2	77.2	79.0	62	63.2	0	0	---	0.00	29.734 
20:50	77.0	77.0	78.8	62	63.0	0	0	---	0.00	29.734 
20:55	76.8	76.8	78.6	62	62.8	0	0	---	0.00	29.734 
21:00	76.7	76.7	78.5	63	63.1	0	0	---	0.00	29.733 
21:05	76.5	76.5	78.3	63	62.9	0	0	---	0.00	29.733 
21:10	76.3	76.3	78.2	64	63.2	0	0	---	0.00	29.733 
21:15	76.0	76.0	77.9	64	62.9	0	0	---	0.00	29.732 
21:20	76.0	76.0	77.9	64	62.9	0	1	270	0.00	29.732 
21:25	75.8	75.8	77.7	64	62.7	0	1	270	0.00	29.732 
21:30	75.6	75.6	77.5	65	63.0	0	0	---	0.00	29.734 
21:35	75.4	75.4	77.4	65	62.8	0	1	270	0.00	29.734 
21:40	75.3	75.3	77.3	65	62.7	0	1	270	0.00	29.734 
21:45	75.1	75.1	77.1	65	62.5	0	1	270	0.00	29.743 
21:50	75.1	75.1	77.1	65	62.5	0	1	270	0.00	29.743 
21:55	74.9	74.9	74.9	65	62.3	0	1	270	0.00	29.743 
22:00	74.9	74.9	74.9	65	62.3	0	1	270	0.00	29.750 
22:05	74.7	74.7	74.7	65	62.1	0	1	270	0.00	29.750 
22:10	74.6	74.6	74.6	66	62.5	0	1	270	0.00	29.750 
22:15	74.6	74.6	74.6	66	62.5	0	1	270	0.00	29.755 
22:20	74.6	74.6	74.6	66	62.5	0	0	---	0.00	29.755 
22:25	74.4	74.4	74.4	66	62.3	0	1	270	0.00	29.755 
22:30	74.4	74.4	74.4	66	62.3	0	1	270	0.00	29.763 
22:35	74.2	74.2	74.2	67	62.5	0	0	---	0.00	29.763 
22:40	74.0	74.0	74.0	67	62.3	0	0	---	0.00	29.763 
22:45	74.0	74.0	74.0	68	62.8	0	1	270	0.00	29.763 
22:50	74.0	74.0	74.0	67	62.3	0	2	270	0.00	29.763 
22:55	74.0	74.0	74.0	67	62.3	0	1	270	0.00	29.763 
23:00	73.9	73.9	73.9	67	62.2	0	1	270	0.00	29.766 
23:05	73.9	73.9	73.9	68	62.7	0	1	270	0.00	29.766 
23:10	73.9	73.9	73.9	68	62.7	0	1	270	0.00	29.766 
23:15	73.9	73.9	73.9	68	62.7	0	1	270	0.00	29.763 
23:20	73.7	73.7	73.7	68	62.5	0	1	270	0.00	29.763 
23:25	73.7	73.7	73.7	69	62.9	0	1	270	0.00	29.763 
23:30	73.5	73.5	73.5	69	62.7	0	0	---	0.00	29.763 
23:35	73.5	73.5	73.5	69	62.7	0	1	270	0.00	29.763 
23:40	73.3	73.3	73.3	70	62.9	0	1	270	0.00	29.763 
23:45	73.3	73.3	73.3	70	62.9	0	3	270	0.00	29.767 
23:50	73.2	73.2	73.2	70	62.8	0	2	270	0.00	29.767 
23:55	73.2	73.2	73.2	69	62.4	1	3	270	0.00	29.767 

CoCoRaHS
IN-AL-39
A2 Web Hosting
Creative Commons License
GoDaddy
search engine by freefind advanced

loaded 2018-11-17 23:48:55 • last modified 2010-11-18 10:43:29
Privacy PolicyDisclaimer
• wx.awcolley.com is powered by PmWiki v.2002016 •
• all content (unless otherwise noted) © 2018 A W Colley